Time;durP1;ratioP1;P1;durP2;ratioP2;P2;SDS_P1;SDS_P2;PMS_P1;PMS_P2;Temp;Humidity;BMP_temperature;BMP_pressure;BME280_temperature;BME280_humidity;BME280_pressure;Samples;Min_cycle;Max_cycle;Signal;HPM_P1;HPM_P2
2023/08/12 00:01:36;;;;;;;16.02;8.10;;;19.20;99.90;;;;;;6281127;22;20371;-83
2023/08/12 00:04:02;;;;;;;16.40;8.13;;;19.20;99.90;;;;;;6280057;22;20443;-84
2023/08/12 00:06:28;;;;;;;16.75;8.48;;;19.20;99.90;;;;;;6307894;22;20014;-84
2023/08/12 00:08:54;;;;;;;18.10;8.75;;;19.10;99.90;;;;;;6308368;22;20316;-83
2023/08/12 00:11:19;;;;;;;20.10;9.65;;;19.10;99.90;;;;;;6280061;22;20057;-83
2023/08/12 00:13:45;;;;;;;20.63;9.10;;;19.10;99.90;;;;;;6308279;22;20012;-83
2023/08/12 00:16:11;;;;;;;21.33;9.20;;;19.10;99.90;;;;;;6280201;22;20019;-83
2023/08/12 00:18:36;;;;;;;21.02;9.30;;;19.10;99.90;;;;;;6278539;22;20027;-84
2023/08/12 00:21:12;;;;;;;17.58;9.25;;;19.10;99.90;;;;;;6308396;22;20007;-83
2023/08/12 00:23:40;;;;;;;17.65;9.23;;;19.00;99.90;;;;;;6280727;22;20015;-84
2023/08/12 00:26:06;;;;;;;17.25;9.23;;;19.00;99.90;;;;;;6307247;22;20509;-83
2023/08/12 00:28:33;;;;;;;20.35;10.07;;;19.00;99.90;;;;;;6279407;22;20402;-84
2023/08/12 00:30:58;;;;;;;18.35;9.52;;;19.10;99.90;;;;;;6277166;22;20030;-83
2023/08/12 00:33:24;;;;;;;20.52;10.30;;;19.00;99.90;;;;;;6248835;22;20016;-84
2023/08/12 00:36:03;;;;;;;19.13;8.93;;;19.00;99.90;;;;;;6277023;22;20313;-83
2023/08/12 00:38:29;;;;;;;20.58;10.23;;;19.00;99.90;;;;;;6248960;22;20015;-83
2023/08/12 00:40:54;;;;;;;20.90;9.20;;;19.00;99.90;;;;;;6277063;22;20061;-83
2023/08/12 00:43:20;;;;;;;18.88;9.57;;;18.90;99.90;;;;;;6249955;22;20023;-83
2023/08/12 00:45:46;;;;;;;19.90;9.27;;;18.90;99.90;;;;;;6249045;22;20086;-83
2023/08/12 00:48:11;;;;;;;19.13;9.43;;;18.90;99.90;;;;;;6249726;22;20047;-83
2023/08/12 00:50:39;;;;;;;22.27;10.50;;;18.90;99.90;;;;;;6276434;22;20026;-83
2023/08/12 00:53:11;;;;;;;17.63;9.23;;;18.90;99.90;;;;;;6249236;22;20340;-83
2023/08/12 00:55:37;;;;;;;22.30;10.15;;;19.00;99.90;;;;;;6248688;22;20077;-83
2023/08/12 00:58:03;;;;;;;21.63;10.15;;;18.90;99.90;;;;;;6249276;22;20398;-84
2023/08/12 01:00:40;;;;;;;20.30;10.23;;;18.90;99.90;;;;;;6276090;22;20034;-83
2023/08/12 01:03:06;;;;;;;19.00;9.80;;;18.90;99.90;;;;;;6249729;22;20050;-83
2023/08/12 01:05:33;;;;;;;21.85;10.40;;;18.80;99.90;;;;;;6275316;22;20019;-83
2023/08/12 01:07:59;;;;;;;18.52;9.70;;;18.80;99.90;;;;;;6276347;22;20086;-83
2023/08/12 01:10:42;;;;;;;20.27;10.05;;;18.90;99.90;;;;;;6276635;22;20043;-83
2023/08/12 01:13:54;;;;;;;21.77;9.75;;;18.90;99.90;;;;;;6277192;22;20492;-84
2023/08/12 01:16:22;;;;;;;22.08;10.00;;;18.90;99.90;;;;;;6214278;22;20501;-83
2023/08/12 01:18:49;;;;;;;22.98;9.55;;;18.80;99.90;;;;;;6248723;22;20015;-83
2023/08/12 01:21:16;;;;;;;21.70;10.60;;;18.80;99.90;;;;;;6248506;22;20007;-83
2023/08/12 01:23:44;;;;;;;20.60;10.40;;;18.80;99.90;;;;;;6276578;22;20012;-83
2023/08/12 01:26:10;;;;;;;21.55;10.68;;;18.80;99.90;;;;;;6249006;22;20383;-83
2023/08/12 01:28:35;;;;;;;22.83;10.75;;;18.80;99.90;;;;;;6247955;22;20046;-83
2023/08/12 01:31:12;;;;;;;22.13;10.38;;;18.80;99.90;;;;;;6249656;22;20015;-83
2023/08/12 01:33:58;;;;;;;20.23;10.75;;;18.70;99.90;;;;;;6248981;22;20027;-83
2023/08/12 01:36:26;;;;;;;27.35;11.95;;;18.70;99.90;;;;;;6247478;22;20008;-83
2023/08/12 01:38:56;;;;;;;24.23;11.48;;;18.70;99.90;;;;;;6276516;22;20091;-83
2023/08/12 01:41:40;;;;;;;21.88;10.82;;;18.70;99.90;;;;;;6244729;22;20013;-83
2023/08/12 01:44:06;;;;;;;23.60;10.93;;;18.70;99.90;;;;;;6249486;22;20012;-83
2023/08/12 01:46:31;;;;;;;19.88;10.48;;;18.70;99.90;;;;;;6275937;22;20401;-84
2023/08/12 01:48:57;;;;;;;26.20;11.43;;;18.70;99.90;;;;;;6247763;22;20015;-84
2023/08/12 01:51:38;;;;;;;21.52;10.55;;;18.60;99.90;;;;;;6271731;22;20015;-83
2023/08/12 01:54:04;;;;;;;22.05;10.63;;;18.70;99.90;;;;;;6276540;22;20090;-83
2023/08/12 01:56:29;;;;;;;23.05;10.90;;;18.80;99.90;;;;;;6247979;22;20019;-83
2023/08/12 01:58:55;;;;;;;20.30;10.68;;;18.70;99.90;;;;;;6276328;22;20027;-83
2023/08/12 02:01:20;;;;;;;21.58;11.05;;;18.70;99.90;;;;;;6248421;22;20023;-83
2023/08/12 02:03:46;;;;;;;21.60;11.90;;;18.70;99.90;;;;;;6274953;22;20020;-83
2023/08/12 02:06:14;;;;;;;20.88;11.13;;;18.70;99.90;;;;;;6248327;22;20011;-83
2023/08/12 02:08:40;;;;;;;22.98;11.95;;;18.70;99.90;;;;;;6248092;22;20016;-83
2023/08/12 02:11:06;;;;;;;20.75;11.27;;;18.60;99.90;;;;;;6248967;22;20103;-83
2023/08/12 02:13:46;;;;;;;23.00;11.48;;;18.60;99.90;;;;;;6249193;22;20027;-83
2023/08/12 02:16:12;;;;;;;23.75;11.52;;;18.70;99.90;;;;;;6249028;22;20011;-83
2023/08/12 02:18:50;;;;;;;22.75;11.98;;;18.70;99.90;;;;;;6247731;22;20325;-83
2023/08/12 02:21:15;;;;;;;25.33;12.07;;;18.60;99.90;;;;;;6276547;22;20069;-84
2023/08/12 02:23:41;;;;;;;23.02;12.32;;;18.60;99.90;;;;;;6248660;22;20054;-83
2023/08/12 02:26:07;;;;;;;26.50;12.63;;;18.70;99.90;;;;;;6247583;22;20070;-83
2023/08/12 02:28:46;;;;;;;23.88;12.30;;;18.70;99.90;;;;;;6275864;22;20019;-84
2023/08/12 02:31:12;;;;;;;24.05;12.55;;;18.70;99.90;;;;;;6247517;22;20074;-83
2023/08/12 02:33:38;;;;;;;29.67;13.52;;;18.70;99.90;;;;;;6248567;22;20371;-83
2023/08/12 02:36:04;;;;;;;27.63;13.55;;;18.70;99.90;;;;;;6248747;22;20505;-83
2023/08/12 02:38:29;;;;;;;25.25;13.63;;;18.70;99.90;;;;;;6247923;22;20090;-83
2023/08/12 02:40:55;;;;;;;24.70;12.98;;;18.70;99.90;;;;;;6275989;22;20084;-83
2023/08/12 02:43:36;;;;;;;29.00;13.63;;;18.70;99.90;;;;;;6248835;22;20023;-83
2023/08/12 02:46:02;;;;;;;29.92;14.35;;;18.80;99.90;;;;;;6248250;22;20043;-84
2023/08/12 02:48:27;;;;;;;30.23;13.80;;;18.80;99.90;;;;;;6248424;22;20474;-84
2023/08/12 02:50:53;;;;;;;28.15;14.25;;;18.80;99.90;;;;;;6248580;22;20130;-83
2023/08/12 02:53:19;;;;;;;28.65;15.23;;;18.80;99.90;;;;;;6247255;22;20020;-83
2023/08/12 02:55:59;;;;;;;25.88;13.63;;;18.80;99.90;;;;;;6248507;22;20023;-84
2023/08/12 02:58:25;;;;;;;26.77;14.07;;;18.80;99.90;;;;;;6248641;22;20352;-83
2023/08/12 03:00:51;;;;;;;25.80;14.15;;;18.80;99.90;;;;;;6274374;22;20012;-83
2023/08/12 03:03:20;;;;;;;28.50;14.18;;;18.80;99.90;;;;;;6275138;22;20015;-83
2023/08/12 03:05:47;;;;;;;29.13;13.63;;;18.80;99.90;;;;;;6248250;22;20015;-83
2023/08/12 03:08:13;;;;;;;27.17;14.10;;;18.80;99.90;;;;;;6247618;22;20437;-83
2023/08/12 03:10:38;;;;;;;26.00;14.40;;;18.80;99.90;;;;;;6248070;22;20053;-84
2023/08/12 03:13:16;;;;;;;29.88;14.75;;;18.90;99.90;;;;;;6247637;22;20012;-84
2023/08/12 03:15:42;;;;;;;27.98;14.25;;;18.40;99.90;;;;;;6248301;22;20380;-84
2023/08/12 03:18:08;;;;;;;27.92;14.27;;;18.80;99.90;;;;;;6275741;22;20444;-83
2023/08/12 03:20:34;;;;;;;27.70;13.82;;;18.80;99.90;;;;;;6275632;22;20022;-84
2023/08/12 03:23:00;;;;;;;26.80;13.45;;;18.80;99.90;;;;;;6278245;22;20103;-84
2023/08/12 03:25:35;;;;;;;24.58;14.02;;;18.70;99.90;;;;;;6250536;22;20317;-83
2023/08/12 03:28:01;;;;;;;30.13;14.23;;;18.70;99.90;;;;;;6249627;22;20078;-84
2023/08/12 03:30:26;;;;;;;27.65;14.65;;;18.70;99.90;;;;;;6274657;22;20443;-84
2023/08/12 03:32:53;;;;;;;23.30;13.75;;;18.70;99.90;;;;;;6308240;22;20015;-83
2023/08/12 03:35:31;;;;;;;27.80;14.02;;;18.70;99.90;;;;;;6308028;22;20018;-84
2023/08/12 03:37:56;;;;;;;28.48;14.00;;;18.50;99.90;;;;;;6308509;22;20026;-83
2023/08/12 03:40:22;;;;;;;27.80;14.02;;;18.50;99.90;;;;;;6280562;22;20007;-83
2023/08/12 03:42:48;;;;;;;29.48;13.05;;;18.50;99.90;;;;;;6305785;22;20325;-83
2023/08/12 03:45:13;;;;;;;24.65;13.43;;;18.50;99.90;;;;;;6306895;22;20020;-83
2023/08/12 03:47:53;;;;;;;26.05;13.65;;;18.40;99.90;;;;;;6306551;22;20018;-84
2023/08/12 03:50:18;;;;;;;27.58;13.90;;;18.40;99.90;;;;;;6280153;22;20018;-83
2023/08/12 03:52:44;;;;;;;27.95;14.45;;;18.40;99.90;;;;;;6308337;22;20049;-83
2023/08/12 03:55:10;;;;;;;24.00;13.57;;;18.60;99.90;;;;;;6308118;22;20019;-84
2023/08/12 03:57:48;;;;;;;27.75;13.45;;;18.30;99.90;;;;;;6307417;22;20011;-84
2023/08/12 04:00:13;;;;;;;38.25;15.32;;;18.30;99.90;;;;;;6308321;22;20440;-84
2023/08/12 04:02:39;;;;;;;27.13;13.95;;;18.30;99.90;;;;;;6278584;22;20033;-83
2023/08/12 04:05:05;;;;;;;23.55;14.38;;;18.20;99.90;;;;;;6305324;22;20098;-83
2023/08/12 04:07:32;;;;;;;31.52;15.32;;;18.30;99.90;;;;;;6280003;22;20011;-83
2023/08/12 04:09:57;;;;;;;28.40;14.10;;;18.30;99.90;;;;;;6279505;22;20015;-84
2023/08/12 04:12:23;;;;;;;36.95;16.60;;;18.30;99.90;;;;;;6280717;22;20019;-83
2023/08/12 04:14:48;;;;;;;31.70;16.33;;;18.30;99.90;;;;;;6308496;22;20093;-84
2023/08/12 04:17:14;;;;;;;31.17;15.93;;;18.40;99.90;;;;;;6280177;22;20316;-84
2023/08/12 04:19:40;;;;;;;33.67;16.20;;;18.30;99.90;;;;;;6280835;22;20053;-84
2023/08/12 04:22:20;;;;;;;29.33;16.45;;;18.30;99.90;;;;;;6308932;22;20065;-84
2023/08/12 04:24:46;;;;;;;35.58;16.88;;;18.40;99.90;;;;;;6309631;22;20014;-83
2023/08/12 04:27:12;;;;;;;35.50;17.23;;;18.30;99.90;;;;;;6311375;22;20016;-83
2023/08/12 04:29:37;;;;;;;35.78;17.10;;;18.70;99.90;;;;;;6285571;22;20463;-83
2023/08/12 04:32:15;;;;;;;30.20;16.63;;;18.40;99.90;;;;;;6307915;22;20023;-83
2023/08/12 04:34:41;;;;;;;34.25;16.40;;;18.40;99.90;;;;;;6309144;22;20015;-84
2023/08/12 04:37:07;;;;;;;33.58;17.30;;;18.40;99.90;;;;;;6282560;22;20084;-83
2023/08/12 04:39:32;;;;;;;32.45;17.20;;;18.40;99.90;;;;;;6283170;22;20095;-84
2023/08/12 04:41:58;;;;;;;32.17;16.77;;;18.40;99.90;;;;;;6281543;22;20072;-83
2023/08/12 04:44:36;;;;;;;38.85;18.10;;;18.50;99.90;;;;;;6283290;22;20056;-83
2023/08/12 04:47:02;;;;;;;39.88;18.48;;;18.50;99.90;;;;;;6311536;22;20012;-84
2023/08/12 04:49:28;;;;;;;32.67;16.55;;;18.50;99.90;;;;;;6285581;22;20339;-83
2023/08/12 04:51:54;;;;;;;40.67;17.95;;;18.50;99.90;;;;;;6282588;22;20033;-84
2023/08/12 04:54:30;;;;;;;37.67;18.60;;;18.50;99.90;;;;;;6311794;22;20094;-83
2023/08/12 04:56:56;;;;;;;39.40;18.23;;;18.50;99.90;;;;;;6287261;22;20015;-83
2023/08/12 04:59:22;;;;;;;36.28;17.63;;;18.60;99.90;;;;;;6282897;22;20419;-84
2023/08/12 05:01:47;;;;;;;36.63;17.77;;;18.60;99.90;;;;;;6313113;22;20011;-84
2023/08/12 05:04:13;;;;;;;38.88;18.15;;;18.60;99.90;;;;;;6284134;22;20131;-84
2023/08/12 05:06:40;;;;;;;36.25;18.52;;;18.60;99.90;;;;;;6309918;22;20050;-84
2023/08/12 05:09:05;;;;;;;39.58;19.10;;;18.60;99.90;;;;;;6314154;22;20016;-85
2023/08/12 05:11:31;;;;;;;36.20;18.63;;;18.50;99.90;;;;;;6283987;22;20347;-85
2023/08/12 05:13:57;;;;;;;39.35;18.77;;;18.60;99.90;;;;;;6307745;22;20082;-85
2023/08/12 05:16:22;;;;;;;40.42;20.33;;;18.60;99.90;;;;;;6281420;22;20055;-82
2023/08/12 05:18:54;;;;;;;40.08;20.15;;;18.70;99.90;;;;;;6281509;22;20019;-82
2023/08/12 05:21:20;;;;;;;41.95;20.63;;;18.70;99.90;;;;;;6309476;22;20018;-83
2023/08/12 05:23:46;;;;;;;42.08;20.13;;;18.70;99.90;;;;;;6307056;22;20023;-82
2023/08/12 05:26:12;;;;;;;39.65;20.52;;;18.80;99.90;;;;;;6281700;22;20047;-82
2023/08/12 05:28:38;;;;;;;37.25;19.80;;;18.80;99.90;;;;;;6278637;22;20072;-82
2023/08/12 05:31:29;;;;;;;37.15;20.58;;;18.90;99.90;;;;;;6309320;22;20011;-82
2023/08/12 05:33:55;;;;;;;39.65;21.88;;;18.90;99.90;;;;;;6308370;22;20015;-82
2023/08/12 05:36:21;;;;;;;39.55;22.00;;;18.90;99.90;;;;;;6282506;22;20072;-83
2023/08/12 05:38:46;;;;;;;43.72;22.52;;;18.90;99.90;;;;;;6281743;22;20042;-83
2023/08/12 05:41:12;;;;;;;38.85;22.42;;;18.90;99.90;;;;;;6306352;22;20011;-83
2023/08/12 05:43:37;;;;;;;41.97;22.17;;;19.00;99.90;;;;;;6309671;22;20324;-82
2023/08/12 05:46:03;;;;;;;47.80;23.67;;;19.00;99.90;;;;;;6310037;22;20017;-82
2023/08/12 05:48:29;;;;;;;45.70;22.85;;;19.10;99.90;;;;;;6309307;22;20042;-81
2023/08/12 05:50:54;;;;;;;38.15;21.83;;;19.30;99.90;;;;;;6310845;22;20026;-83
2023/08/12 05:53:21;;;;;;;42.78;22.52;;;19.20;99.90;;;;;;6309007;22;20026;-82
2023/08/12 05:55:55;;;;;;;40.42;21.88;;;19.30;99.90;;;;;;6282261;22;20026;-83
2023/08/12 05:58:20;;;;;;;43.03;22.65;;;19.30;99.90;;;;;;6283501;22;20043;-82
2023/08/12 06:00:46;;;;;;;44.47;23.85;;;19.20;99.90;;;;;;6309177;22;20447;-82
2023/08/12 06:03:12;;;;;;;39.53;22.75;;;19.40;99.90;;;;;;6280571;22;20094;-83
2023/08/12 06:05:40;;;;;;;43.38;22.73;;;19.40;99.90;;;;;;6279774;22;20069;-83
2023/08/12 06:08:05;;;;;;;45.40;23.55;;;19.50;99.90;;;;;;6280227;22;20008;-83
2023/08/12 06:10:31;;;;;;;41.22;23.42;;;19.70;99.90;;;;;;6278539;22;20098;-82
2023/08/12 06:12:56;;;;;;;39.50;22.70;;;19.70;99.90;;;;;;6305113;22;20022;-82
2023/08/12 06:15:22;;;;;;;40.33;23.60;;;19.90;99.90;;;;;;6281258;22;20012;-82
2023/08/12 06:17:48;;;;;;;41.13;23.58;;;20.00;99.90;;;;;;6279697;22;20015;-82
2023/08/12 06:20:13;;;;;;;41.33;22.35;;;20.20;99.90;;;;;;6309476;22;20023;-83
2023/08/12 06:22:39;;;;;;;38.08;22.02;;;20.30;99.90;;;;;;6280809;22;20343;-83
2023/08/12 06:25:05;;;;;;;38.35;22.10;;;20.40;99.90;;;;;;6308903;22;20436;-83
2023/08/12 06:27:31;;;;;;;37.15;21.30;;;20.50;99.90;;;;;;6281122;22;20015;-83
2023/08/12 06:29:56;;;;;;;34.35;20.17;;;20.50;99.90;;;;;;6308702;22;20400;-83
2023/08/12 06:32:22;;;;;;;33.38;20.88;;;20.50;99.90;;;;;;6310645;22;20038;-83
2023/08/12 06:34:47;;;;;;;34.70;20.58;;;20.50;99.90;;;;;;6280820;22;20030;-82
2023/08/12 06:37:13;;;;;;;32.92;19.63;;;20.40;99.90;;;;;;6306177;22;20402;-83
2023/08/12 06:39:39;;;;;;;32.60;19.95;;;20.40;99.90;;;;;;6280936;22;20029;-82
2023/08/12 06:42:06;;;;;;;34.15;20.35;;;20.40;99.90;;;;;;6308108;22;20027;-82
2023/08/12 06:44:31;;;;;;;29.98;19.77;;;20.40;99.90;;;;;;6309147;22;20015;-83
2023/08/12 06:46:57;;;;;;;32.38;21.45;;;20.40;99.90;;;;;;6309828;22;20008;-83
2023/08/12 06:49:22;;;;;;;31.60;19.63;;;20.40;99.90;;;;;;6281310;22;20015;-82
2023/08/12 06:51:48;;;;;;;31.30;20.02;;;20.40;99.90;;;;;;6279877;22;20069;-82
2023/08/12 06:54:16;;;;;;;30.40;19.58;;;20.40;99.90;;;;;;6307393;22;20012;-83
2023/08/12 06:56:42;;;;;;;32.53;19.85;;;20.40;99.90;;;;;;6304630;22;20012;-83
2023/08/12 06:59:17;;;;;;;27.77;19.60;;;20.40;99.90;;;;;;6307469;22;20011;-82
2023/08/12 07:01:43;;;;;;;32.17;20.05;;;20.40;99.90;;;;;;6281877;22;20029;-82
2023/08/12 07:04:09;;;;;;;30.00;19.27;;;20.40;99.90;;;;;;6308849;22;20466;-83
2023/08/12 07:06:49;;;;;;;30.05;19.08;;;20.30;99.90;;;;;;6308631;22;20015;-82
2023/08/12 07:09:15;;;;;;;34.47;18.88;;;20.30;99.90;;;;;;6281885;22;20016;-82
2023/08/12 07:11:40;;;;;;;29.65;19.05;;;20.30;99.90;;;;;;6280294;22;20015;-82
2023/08/12 07:14:22;;;;;;;32.03;20.25;;;20.20;99.90;;;;;;6280270;22;20020;-82
2023/08/12 07:16:47;;;;;;;32.15;18.88;;;20.30;99.90;;;;;;6306927;22;20069;-82
2023/08/12 07:19:14;;;;;;;29.92;18.25;;;20.20;99.90;;;;;;6278010;22;20328;-82
2023/08/12 07:21:40;;;;;;;29.25;18.60;;;20.30;99.90;;;;;;6306288;22;20336;-83
2023/08/12 07:24:18;;;;;;;29.83;18.35;;;20.20;99.90;;;;;;6279521;22;20015;-82
2023/08/12 07:26:44;;;;;;;28.48;18.50;;;20.30;99.90;;;;;;6277261;22;20455;-83
2023/08/12 07:29:10;;;;;;;27.45;17.08;;;20.30;99.90;;;;;;6278908;22;20022;-83
2023/08/12 07:31:35;;;;;;;28.55;17.38;;;20.30;99.90;;;;;;6306222;22;20086;-82
2023/08/12 07:34:18;;;;;;;25.73;17.13;;;20.20;99.90;;;;;;6305698;22;20015;-82
2023/08/12 07:36:44;;;;;;;26.75;17.27;;;20.10;99.90;;;;;;6306478;22;20054;-82
2023/08/12 07:39:09;;;;;;;27.02;16.92;;;20.20;99.90;;;;;;6278261;22;20023;-83
2023/08/12 07:41:35;;;;;;;27.83;16.90;;;20.10;99.90;;;;;;6305362;22;20011;-85
2023/08/12 07:44:13;;;;;;;26.35;15.20;;;20.10;99.90;;;;;;6306027;22;20015;-82
2023/08/12 07:46:55;;;;;;;28.02;16.35;;;20.10;99.90;;;;;;6306317;22;20051;-82
2023/08/12 07:49:22;;;;;;;25.35;15.90;;;20.00;99.90;;;;;;6278057;22;20068;-83
2023/08/12 07:51:47;;;;;;;27.38;15.38;;;20.00;99.90;;;;;;6305972;22;20455;-82
2023/08/12 07:54:13;;;;;;;26.63;16.15;;;20.00;99.90;;;;;;6306784;22;20129;-82
2023/08/12 07:56:39;;;;;;;25.15;15.82;;;20.00;99.90;;;;;;6277229;22;20046;-85
2023/08/12 07:59:17;;;;;;;25.40;15.45;;;20.00;99.90;;;;;;6278312;22;20349;-84
2023/08/12 08:01:42;;;;;;;25.35;16.20;;;19.90;99.90;;;;;;6303427;22;20012;-84
2023/08/12 08:04:08;;;;;;;27.17;16.55;;;19.90;99.90;;;;;;6305426;22;20068;-84
2023/08/12 08:06:34;;;;;;;26.60;16.25;;;19.90;99.90;;;;;;6277925;22;20102;-86
2023/08/12 08:09:15;;;;;;;24.45;15.77;;;19.90;99.90;;;;;;6307105;22;20012;-84
2023/08/12 08:11:40;;;;;;;23.52;15.50;;;19.90;99.90;;;;;;6280627;22;20015;-84
2023/08/12 08:14:24;;;;;;;26.30;15.38;;;19.90;99.90;;;;;;6281260;22;20014;-87
2023/08/12 08:16:50;;;;;;;24.83;15.43;;;19.80;99.90;;;;;;6309568;22;20018;-84
2023/08/12 08:19:19;;;;;;;22.70;14.90;;;19.80;99.90;;;;;;6280991;22;20020;-84
2023/08/12 08:21:44;;;;;;;24.60;15.43;;;19.80;99.90;;;;;;6308314;22;20084;-83
2023/08/12 08:24:12;;;;;;;24.33;15.05;;;19.80;99.90;;;;;;6307545;22;20432;-84
2023/08/12 08:26:56;;;;;;;26.63;15.52;;;19.70;99.90;;;;;;6308101;22;20084;-85
2023/08/12 08:29:22;;;;;;;24.40;14.43;;;19.70;99.90;;;;;;6308523;22;20018;-84
2023/08/12 08:32:06;;;;;;;27.73;16.10;;;19.80;99.90;;;;;;6306053;22;20082;-84
2023/08/12 08:34:44;;;;;;;26.58;15.32;;;19.80;99.90;;;;;;6308187;22;20011;-84
2023/08/12 08:37:25;;;;;;;26.75;15.50;;;19.50;99.90;;;;;;6307053;22;20482;-84
2023/08/12 08:39:51;;;;;;;26.23;15.07;;;19.70;99.90;;;;;;6307527;22;20038;-85
2023/08/12 08:42:20;;;;;;;27.05;15.57;;;19.80;99.90;;;;;;6280617;22;20343;-85
2023/08/12 08:45:11;;;;;;;28.15;16.23;;;19.80;99.90;;;;;;6279117;22;20022;-86
2023/08/12 08:48:02;;;;;;;22.70;14.88;;;19.80;99.90;;;;;;6305356;22;20007;-85
2023/08/12 08:50:38;;;;;;;27.05;14.52;;;19.80;99.90;;;;;;6307705;22;20069;-84
2023/08/12 08:53:12;;;;;;;23.25;14.93;;;19.80;99.90;;;;;;6280364;22;20027;-84
2023/08/12 08:55:45;;;;;;;23.85;14.18;;;19.80;99.90;;;;;;6279974;22;20012;-85
2023/08/12 08:58:18;;;;;;;23.38;13.85;;;19.90;99.90;;;;;;6279667;22;20016;-86
2023/08/12 09:00:44;;;;;;;25.05;14.65;;;19.90;99.90;;;;;;6279570;22;20015;-85
2023/08/12 09:03:11;;;;;;;27.23;14.32;;;20.00;99.90;;;;;;6279938;22;20022;-84
2023/08/12 09:05:55;;;;;;;25.67;13.55;;;19.70;99.90;;;;;;6278822;22;20019;-84
2023/08/12 09:08:22;;;;;;;23.45;13.57;;;20.00;99.90;;;;;;6307756;22;20423;-85
2023/08/12 09:11:13;;;;;;;23.50;13.25;;;20.00;99.90;;;;;;6278904;22;20076;-85
2023/08/12 09:13:39;;;;;;;22.83;13.15;;;20.00;99.90;;;;;;6277573;22;20098;-85
2023/08/12 09:19:06;;;;;;;20.17;12.70;;;19.90;99.90;;;;;;6181722;23;20020;-85
2023/08/12 09:21:32;;;;;;;23.17;14.02;;;19.90;99.90;;;;;;6157710;23;20516;-85
2023/08/12 09:26:59;;;;;;;23.42;13.30;;;19.80;99.90;;;;;;6304398;22;20050;-85
2023/08/12 09:29:34;;;;;;;26.15;14.20;;;19.80;99.90;;;;;;6281392;22;20104;-86
2023/08/12 09:44:16;;;;;;;19.60;12.18;;;19.70;99.90;;;;;;6269159;22;20019;-85
2023/08/12 09:47:30;;;;;;;;;;;;;;;;;;;;;
2023/08/12 09:50:26;;;;;;;16.10;9.02;;;19.50;99.90;;;;;;6238915;22;20015;-86
2023/08/12 09:53:03;;;;;;;16.45;8.40;;;19.40;99.90;;;;;;6278362;22;20016;-87
2023/08/12 10:06:53;;;;;;;14.10;6.75;;;18.70;99.90;;;;;;6296186;22;20019;-86
2023/08/12 10:09:20;;;;;;;13.45;5.72;;;19.20;99.90;;;;;;6306022;22;20091;-86
2023/08/12 10:12:24;;;;;;;12.80;6.00;;;19.20;99.90;;;;;;6306465;22;20505;-87
2023/08/12 10:14:53;;;;;;;13.98;5.97;;;19.20;99.90;;;;;;6306569;22;20015;-87
2023/08/12 10:17:27;;;;;;;12.88;6.10;;;19.30;99.90;;;;;;6280518;22;20018;-85
2023/08/12 10:20:01;;;;;;;;;;;19.30;99.90;;;;;;6307219;22;20023;-85
2023/08/12 10:23:04;;;;;;;11.60;6.22;;;19.30;99.90;;;;;;6306138;22;19961;-86
2023/08/12 10:25:37;;;;;;;13.95;6.10;;;19.30;99.90;;;;;;6278728;22;20019;-89
2023/08/12 10:28:23;;;;;;;11.18;6.13;;;19.40;99.90;;;;;;6306278;22;20026;-85
2023/08/12 10:31:03;;;;;;;12.77;6.40;;;19.30;99.90;;;;;;6277746;22;20038;-85
2023/08/12 10:34:14;;;;;;;12.32;5.90;;;19.40;99.90;;;;;;6286181;22;20510;-85
2023/08/12 10:36:51;;;;;;;;;;;;;;;;;;;;;
2023/08/12 10:39:55;;;;;;;13.27;6.05;;;19.30;99.90;;;;;;6226912;22;20014;-87
2023/08/12 10:42:42;;;;;;;15.52;5.85;;;19.20;99.90;;;;;;6293600;22;20030;-86
2023/08/12 11:04:19;;;;;;;10.80;5.40;;;19.20;99.90;;;;;;6309522;22;20018;-87
2023/08/12 11:06:58;;;;;;;;;;;;;;;;;;;;;
2023/08/12 11:12:35;;;;;;;10.43;4.72;;;19.30;99.90;;;;;;6247676;22;20020;-86
2023/08/12 11:18:07;;;;;;;10.65;4.10;;;19.60;99.90;;;;;;6305843;22;20023;-87
2023/08/12 11:20:34;;;;;;;9.75;4.20;;;19.70;99.90;;;;;;6280915;22;20040;-83
2023/08/12 11:23:20;;;;;;;10.07;4.68;;;20.00;99.90;;;;;;6280395;22;20015;-84
2023/08/12 11:25:54;;;;;;;10.73;4.25;;;20.10;99.90;;;;;;6279580;22;20320;-83
2023/08/12 11:28:38;;;;;;;8.27;3.50;;;20.30;99.90;;;;;;6307727;22;20470;-83
2023/08/12 11:31:17;;;;;;;8.07;3.22;;;20.30;99.90;;;;;;6278799;22;20011;-82
2023/08/12 11:33:43;;;;;;;5.55;2.13;;;20.20;99.90;;;;;;6304192;22;20027;-82
2023/08/12 11:36:09;;;;;;;6.28;2.00;;;20.10;99.90;;;;;;6277603;22;20451;-83
2023/08/12 11:38:54;;;;;;;4.50;1.75;;;19.90;99.90;;;;;;6240917;23;20449;-82
2023/08/12 11:41:40;;;;;;;4.55;1.75;;;19.70;99.90;;;;;;6215686;23;20588;-82
2023/08/12 11:44:11;;;;;;;5.43;1.83;;;19.50;99.90;;;;;;6218895;23;20487;-84
2023/08/12 11:46:54;;;;;;;7.70;2.17;;;19.30;99.90;;;;;;6243082;23;20016;-83
2023/08/12 11:49:20;;;;;;;5.43;2.00;;;19.60;99.90;;;;;;6218480;23;20016;-82
2023/08/12 11:51:48;;;;;;;6.55;2.10;;;19.60;99.90;;;;;;6243168;23;20083;-82
2023/08/12 11:54:14;;;;;;;5.10;1.83;;;19.70;99.90;;;;;;6216968;23;20024;-82
2023/08/12 11:56:46;;;;;;;6.40;2.10;;;19.70;99.90;;;;;;6243554;23;20521;-84
2023/08/12 11:59:26;;;;;;;5.80;2.25;;;19.80;99.90;;;;;;6244191;23;20027;-83
2023/08/12 12:01:51;;;;;;;5.78;1.98;;;20.10;99.90;;;;;;6243291;23;20012;-82
2023/08/12 12:04:21;;;;;;;5.70;1.95;;;20.30;99.90;;;;;;6218034;23;20103;-83
2023/08/12 12:06:47;;;;;;;6.35;1.90;;;20.30;99.90;;;;;;6243592;23;20051;-82
2023/08/12 12:09:13;;;;;;;4.95;1.67;;;20.60;99.90;;;;;;6235818;22;20475;-81
2023/08/12 12:11:56;;;;;;;5.07;1.60;;;20.70;99.90;;;;;;6308118;22;20011;-81
2023/08/12 12:14:21;;;;;;;3.80;1.40;;;20.80;99.90;;;;;;6308185;22;20015;-81
2023/08/12 12:17:28;;;;;;;4.15;1.67;;;21.10;99.90;;;;;;6306096;22;20382;-81
2023/08/12 12:19:59;;;;;;;5.55;1.80;;;21.20;99.90;;;;;;6307324;22;20022;-80
2023/08/12 12:22:38;;;;;;;4.38;1.60;;;21.40;99.90;;;;;;6280320;22;20500;-81
2023/08/12 12:25:08;;;;;;;3.90;1.63;;;21.40;99.90;;;;;;6307285;22;20341;-81
2023/08/12 12:27:34;;;;;;;3.58;1.70;;;21.50;99.90;;;;;;6280032;22;20065;-81
2023/08/12 12:30:16;;;;;;;5.13;1.73;;;21.70;99.90;;;;;;6306684;22;20011;-81
2023/08/12 12:32:45;;;;;;;4.05;1.63;;;21.80;99.90;;;;;;6270120;22;20321;-82
2023/08/12 12:35:11;;;;;;;4.50;1.80;;;21.80;99.90;;;;;;6306892;22;20328;-81
2023/08/12 12:37:43;;;;;;;5.20;1.90;;;21.90;99.90;;;;;;6278390;22;20019;-85
2023/08/12 12:40:27;;;;;;;6.28;2.15;;;21.70;99.90;;;;;;6279463;22;20102;-87
2023/08/12 12:43:05;;;;;;;5.85;2.20;;;21.60;99.90;;;;;;6305487;22;20007;-82
2023/08/12 12:45:30;;;;;;;5.72;2.00;;;21.70;99.90;;;;;;6279882;22;20019;-83
2023/08/12 12:47:56;;;;;;;5.43;2.10;;;21.70;99.90;;;;;;6279502;22;20015;-82
2023/08/12 12:50:35;;;;;;;5.05;2.00;;;21.60;99.90;;;;;;6278511;22;20015;-83
2023/08/12 12:53:01;;;;;;;6.82;2.30;;;21.40;99.90;;;;;;6280000;22;20015;-83
2023/08/12 12:55:26;;;;;;;7.28;2.13;;;21.50;99.90;;;;;;6280291;22;20102;-83
2023/08/12 12:58:09;;;;;;;4.90;1.90;;;21.40;99.90;;;;;;6279141;22;20392;-83
2023/08/12 13:00:35;;;;;;;5.43;2.03;;;21.50;99.90;;;;;;6280249;22;20408;-82
2023/08/12 13:03:00;;;;;;;5.25;2.00;;;21.40;99.90;;;;;;6280170;22;20026;-82
2023/08/12 13:05:46;;;;;;;6.97;2.50;;;21.60;99.90;;;;;;6278616;22;20097;-81
2023/08/12 13:08:22;;;;;;;6.70;2.35;;;21.60;99.90;;;;;;6307529;22;20011;-82
2023/08/12 13:10:48;;;;;;;5.97;2.05;;;21.60;99.90;;;;;;6278670;22;20030;-82
2023/08/12 13:13:26;;;;;;;5.10;2.00;;;21.80;99.90;;;;;;6306520;22;20015;-83
2023/08/12 13:15:52;;;;;;;7.22;2.22;;;21.90;99.90;;;;;;6307838;22;20007;-83
2023/08/12 13:18:27;;;;;;;6.63;1.98;;;22.00;99.90;;;;;;6278870;22;20156;-82
2023/08/12 13:20:55;;;;;;;6.28;2.00;;;21.80;99.90;;;;;;6279359;22;20321;-82
2023/08/12 13:23:55;;;;;;;6.88;2.15;;;22.10;99.90;;;;;;6308045;22;20026;-83
2023/08/12 13:26:21;;;;;;;7.47;2.03;;;22.40;99.90;;;;;;6279248;22;20019;-82
2023/08/12 13:28:47;;;;;;;8.00;2.25;;;22.70;99.90;;;;;;6278770;22;20020;-81
2023/08/12 13:31:13;;;;;;;6.45;2.08;;;22.60;99.90;;;;;;6279821;22;20019;-82
2023/08/12 13:33:38;;;;;;;7.55;2.20;;;22.50;99.90;;;;;;6279497;22;20101;-82
2023/08/12 13:36:07;;;;;;;7.00;2.03;;;22.50;99.90;;;;;;6307207;22;20162;-81
2023/08/12 13:38:33;;;;;;;7.90;2.20;;;22.40;99.90;;;;;;6307599;22;20050;-82
2023/08/12 13:40:58;;;;;;;7.85;2.55;;;22.30;99.90;;;;;;6279052;22;20062;-82
2023/08/12 13:43:39;;;;;;;7.68;2.13;;;22.30;99.90;;;;;;6280166;22;20015;-82
2023/08/12 13:46:23;;;;;;;6.88;2.10;;;22.30;99.90;;;;;;6306341;22;20090;-83
2023/08/12 13:48:49;;;;;;;9.57;2.50;;;22.40;99.90;;;;;;6278020;22;20086;-82